Time;durP1;ratioP1;P1;durP2;ratioP2;P2;SDS_P1;SDS_P2;PMS_P1;PMS_P2;Temp;Humidity;BMP_temperature;BMP_pressure;BME280_temperature;BME280_humidity;BME280_pressure;Samples;Min_cycle;Max_cycle;Signal;HPM_P1;HPM_P2
2023/05/13 13:12:04;;;;;;;9.15;4.18;;;;;;;20.11;41.97;100149.34;5093631;28;20082;-82
2023/05/13 13:14:30;;;;;;;6.60;3.88;;;;;;;20.15;41.80;100137.56;5094753;28;20040;-82
2023/05/13 13:16:55;;;;;;;7.68;5.45;;;;;;;20.19;42.09;100151.41;5095080;28;20073;-81
2023/05/13 13:19:20;;;;;;;5.13;3.35;;;;;;;20.21;41.70;100148.63;5098471;28;20048;-81
2023/05/13 13:21:46;;;;;;;7.15;3.10;;;;;;;20.15;41.77;100134.94;5115075;28;20599;-81
2023/05/13 13:24:11;;;;;;;3.88;2.95;;;;;;;20.41;42.32;100153.19;5115568;28;20364;-81
2023/05/13 13:26:36;;;;;;;4.18;3.10;;;;;;;20.30;42.10;100119.63;5115275;28;20081;-81
2023/05/13 13:29:02;;;;;;;4.00;3.05;;;;;;;20.46;41.87;100153.66;5115364;28;20489;-81
2023/05/13 13:31:27;;;;;;;3.60;2.70;;;;;;;20.27;42.12;100121.69;5115164;28;20023;-81
2023/05/13 13:33:53;;;;;;;7.57;3.35;;;;;;;20.05;42.72;100109.31;5115079;28;20085;-81
2023/05/13 13:36:18;;;;;;;5.53;2.85;;;;;;;20.14;42.76;100146.47;5115064;28;20028;-81
2023/05/13 13:38:43;;;;;;;6.95;3.28;;;;;;;20.13;42.31;100141.28;5096343;28;20027;-81
2023/05/13 13:41:09;;;;;;;8.88;3.50;;;;;;;19.89;41.93;100112.34;5114960;28;20023;-81
2023/05/13 13:43:34;;;;;;;5.35;3.58;;;;;;;19.76;42.21;100125.63;5114981;28;20027;-81
2023/05/13 13:45:59;;;;;;;7.00;3.17;;;;;;;19.68;42.32;100117.50;5096619;28;20026;-81
2023/05/13 13:48:25;;;;;;;8.90;4.18;;;;;;;19.76;42.57;100154.72;5114746;28;20528;-80
2023/05/13 13:50:51;;;;;;;5.15;3.33;;;;;;;19.83;42.47;100139.25;5114419;28;20459;-81
2023/05/13 13:53:17;;;;;;;3.10;2.80;;;;;;;19.94;42.53;100140.09;5114626;28;20402;-81
2023/05/13 13:55:42;;;;;;;6.93;3.40;;;;;;;19.87;42.76;100152.09;5114312;28;20023;-81
2023/05/13 13:58:07;;;;;;;5.68;3.80;;;;;;;19.61;42.97;100105.69;5114609;28;20023;-81
2023/05/13 14:00:32;;;;;;;6.32;3.55;;;;;;;19.74;42.82;100129.38;5114347;28;20023;-81
2023/05/13 14:02:58;;;;;;;5.95;3.55;;;;;;;19.71;43.25;100141.00;5114561;28;20072;-80
2023/05/13 14:05:24;;;;;;;6.03;3.30;;;;;;;19.80;43.21;100135.00;5113481;28;20020;-81
2023/05/13 14:07:52;;;;;;;7.80;3.40;;;;;;;19.66;43.53;100103.53;5114081;28;20458;-81
2023/05/13 14:10:18;;;;;;;5.18;3.53;;;;;;;19.56;43.27;100087.53;5114467;28;20028;-81
2023/05/13 14:12:43;;;;;;;5.18;3.47;;;;;;;19.74;42.40;100100.31;5113948;28;20126;-81
2023/05/13 14:15:09;;;;;;;6.13;3.20;;;;;;;19.81;42.22;100107.66;5114310;28;20476;-81
2023/05/13 14:17:34;;;;;;;8.43;3.95;;;;;;;19.88;42.29;100114.13;5114026;28;20031;-81
2023/05/13 14:20:00;;;;;;;4.55;3.83;;;;;;;19.80;42.41;100129.72;5114368;28;20514;-81
2023/05/13 14:22:25;;;;;;;5.72;3.63;;;;;;;19.78;42.79;100115.81;5114049;28;20034;-81
2023/05/13 14:24:51;;;;;;;8.35;6.03;;;;;;;19.88;43.03;100132.63;5113690;28;20107;-81
2023/05/13 14:27:17;;;;;;;9.00;7.32;;;;;;;19.91;42.81;100127.09;5114126;28;20020;-81
2023/05/13 14:29:44;;;;;;;7.93;5.35;;;;;;;19.99;43.00;100137.09;5113872;28;20034;-81
2023/05/13 14:32:10;;;;;;;22.15;17.98;;;;;;;20.07;43.04;100120.63;5113878;28;20026;-81
2023/05/13 14:34:35;;;;;;;4.85;3.90;;;;;;;20.02;43.07;100105.13;5113643;28;20019;-81
2023/05/13 14:37:01;;;;;;;5.65;3.80;;;;;;;20.05;43.06;100133.13;5113679;28;20028;-81
2023/05/13 14:39:26;;;;;;;6.00;4.38;;;;;;;19.78;43.70;100107.03;5113966;28;20148;-81
2023/05/13 14:41:51;;;;;;;11.85;7.95;;;;;;;19.98;43.81;100131.94;5113633;28;20036;-81
2023/05/13 14:44:17;;;;;;;15.38;7.70;;;;;;;19.86;43.58;100126.63;5095427;28;20470;-81
2023/05/13 14:46:42;;;;;;;16.67;8.85;;;;;;;20.07;43.03;100133.84;5113599;28;20032;-81
2023/05/13 14:49:08;;;;;;;15.05;8.57;;;;;;;19.93;43.05;100100.53;5113636;28;20024;-81
2023/05/13 14:51:34;;;;;;;9.23;5.82;;;;;;;19.73;43.62;100083.63;5113452;28;20061;-81
2023/05/13 14:53:59;;;;;;;4.35;3.33;;;;;;;20.19;42.71;100138.19;5113458;28;20032;-81
2023/05/13 14:56:24;;;;;;;7.35;3.92;;;;;;;20.18;43.38;100124.13;5113667;28;20031;-81
2023/05/13 14:58:51;;;;;;;7.75;5.57;;;;;;;20.08;43.60;100109.91;5113069;28;20604;-81
2023/05/13 15:01:17;;;;;;;6.22;5.05;;;;;;;20.10;42.75;100105.38;5113467;28;20032;-81
2023/05/13 15:03:42;;;;;;;6.55;3.80;;;;;;;19.98;42.53;100103.69;5113054;28;20076;-81
2023/05/13 15:06:08;;;;;;;4.57;3.75;;;;;;;20.08;42.14;100117.00;5113167;28;20031;-81
2023/05/13 15:08:35;;;;;;;5.35;3.60;;;;;;;20.23;42.92;100113.16;5094819;28;20110;-81
2023/05/13 15:11:00;;;;;;;4.35;3.55;;;;;;;20.27;42.50;100132.25;5112995;28;20415;-81
2023/05/13 15:13:27;;;;;;;4.88;3.50;;;;;;;20.20;42.51;100123.97;5113127;28;20044;-81
2023/05/13 15:15:53;;;;;;;4.28;3.13;;;;;;;20.00;42.13;100112.31;5113032;28;20376;-81
2023/05/13 15:18:19;;;;;;;7.85;6.53;;;;;;;20.02;41.64;100128.94;5112992;28;20028;-81
2023/05/13 15:20:44;;;;;;;6.57;4.43;;;;;;;19.86;42.05;100102.00;5112642;28;20023;-81
2023/05/13 15:23:10;;;;;;;6.43;3.42;;;;;;;19.85;42.30;100110.91;5112785;28;20494;-81
2023/05/13 15:25:35;;;;;;;5.47;3.53;;;;;;;19.99;42.26;100104.53;5113074;28;20107;-81
2023/05/13 15:28:00;;;;;;;7.25;3.58;;;;;;;19.91;42.42;100089.25;5112669;28;20047;-81
2023/05/13 15:30:27;;;;;;;5.18;3.30;;;;;;;20.11;42.59;100120.25;5112950;28;20028;-81
2023/05/13 15:32:52;;;;;;;5.80;4.25;;;;;;;19.89;42.36;100097.31;5112284;28;20467;-81
2023/05/13 15:35:17;;;;;;;4.85;3.33;;;;;;;19.82;42.55;100087.34;5112649;28;20053;-81
2023/05/13 15:37:43;;;;;;;8.63;5.13;;;;;;;19.72;43.10;100075.78;5112612;28;20562;-81
2023/05/13 15:40:08;;;;;;;6.38;4.32;;;;;;;19.87;42.44;100098.38;5112727;28;20115;-81
2023/05/13 15:42:34;;;;;;;8.25;6.20;;;;;;;19.90;42.95;100116.66;5112886;28;20059;-81
2023/05/13 15:44:59;;;;;;;23.08;16.90;;;;;;;19.86;42.80;100113.41;5112456;28;20019;-81
2023/05/13 15:47:24;;;;;;;15.18;12.18;;;;;;;19.67;43.11;100098.13;5112612;28;20027;-81
2023/05/13 15:49:52;;;;;;;9.23;7.38;;;;;;;19.71;43.06;100111.94;5112258;28;20038;-81
2023/05/13 15:52:17;;;;;;;6.75;5.47;;;;;;;19.59;43.05;100120.78;5112300;28;20081;-81
2023/05/13 15:54:42;;;;;;;7.15;5.07;;;;;;;19.64;43.71;100124.81;5112367;28;20028;-81
2023/05/13 15:57:08;;;;;;;6.68;5.10;;;;;;;19.65;43.92;100115.06;5112874;28;20118;-81
2023/05/13 15:59:34;;;;;;;10.55;7.30;;;;;;;19.64;43.73;100113.41;5112489;28;20096;-81
2023/05/13 16:01:59;;;;;;;5.28;4.10;;;;;;;19.59;43.55;100105.78;5112137;28;20467;-81
2023/05/13 16:04:25;;;;;;;4.07;3.50;;;;;;;19.35;43.63;100083.88;5112271;28;20026;-81
2023/05/13 16:06:50;;;;;;;4.95;4.18;;;;;;;19.61;43.97;100108.34;5111995;28;20023;-81
2023/05/13 16:09:15;;;;;;;12.18;6.78;;;;;;;19.43;43.97;100089.44;5112834;28;20078;-81
2023/05/13 16:11:42;;;;;;;6.50;5.32;;;;;;;19.56;43.74;100105.19;5112042;28;20386;-81
2023/05/13 16:14:07;;;;;;;8.55;6.50;;;;;;;19.41;44.22;100109.81;5112401;28;20028;-81
2023/05/13 16:16:33;;;;;;;5.53;4.13;;;;;;;19.48;43.64;100097.84;5112209;28;20023;-81
2023/05/13 16:18:59;;;;;;;6.93;5.13;;;;;;;19.45;44.21;100104.19;5112422;28;20035;-81
2023/05/13 16:21:24;;;;;;;11.93;9.20;;;;;;;19.31;44.59;100083.28;5112066;28;20367;-81
2023/05/13 16:23:49;;;;;;;5.22;4.72;;;;;;;19.36;44.23;100082.94;5112129;28;20047;-81
2023/05/13 16:26:15;;;;;;;4.28;3.88;;;;;;;19.23;44.69;100072.44;5112262;28;20685;-81
2023/05/13 16:28:41;;;;;;;5.07;3.50;;;;;;;19.39;44.85;100104.66;5115435;28;20382;-81
2023/05/13 16:31:06;;;;;;;11.60;9.70;;;;;;;19.33;44.51;100105.13;5116184;28;20024;-81
2023/05/13 16:33:32;;;;;;;21.70;17.00;;;;;;;19.37;45.17;100105.72;5116252;28;20024;-81
2023/05/13 16:35:58;;;;;;;13.02;11.43;;;;;;;19.23;44.75;100071.63;5097668;28;20038;-81
2023/05/13 16:38:24;;;;;;;9.80;7.18;;;;;;;19.28;44.93;100075.56;5116423;28;20104;-81
2023/05/13 16:40:50;;;;;;;10.60;6.45;;;;;;;19.35;45.49;100100.56;5116086;28;20116;-81
2023/05/13 16:43:15;;;;;;;6.45;4.60;;;;;;;19.27;45.26;100076.53;5116442;28;20387;-81
2023/05/13 16:45:41;;;;;;;11.85;9.38;;;;;;;19.13;45.46;100037.13;5116026;28;20023;-81
2023/05/13 16:48:06;;;;;;;13.18;8.63;;;;;;;19.40;45.39;100085.22;5115920;28;20019;-81
2023/05/13 16:50:32;;;;;;;31.02;21.63;;;;;;;19.31;45.42;100095.66;5115867;28;20035;-81
2023/05/13 16:52:57;;;;;;;31.63;24.73;;;;;;;19.14;45.66;100055.50;5115765;28;20514;-81
2023/05/13 16:55:24;;;;;;;26.77;20.95;;;;;;;19.42;45.74;100096.53;5115963;28;20026;-82
2023/05/13 16:57:50;;;;;;;27.08;24.33;;;;;;;19.40;45.58;100084.38;5115602;28;20023;-82
2023/05/13 17:00:15;;;;;;;18.17;15.80;;;;;;;19.11;45.69;100050.44;5115781;28;20452;-81
2023/05/13 17:02:42;;;;;;;25.38;22.52;;;;;;;19.37;46.34;100092.53;5115640;28;20028;-81
2023/05/13 17:05:07;;;;;;;38.78;30.40;;;;;;;18.91;46.45;100028.19;5115447;28;20020;-81
2023/05/13 17:07:32;;;;;;;24.50;18.90;;;;;;;19.09;46.52;100059.47;5115771;28;20482;-81
2023/05/13 17:09:58;;;;;;;17.10;12.77;;;;;;;19.07;47.41;100064.84;5115442;28;20023;-82
2023/05/13 17:12:23;;;;;;;9.23;6.40;;;;;;;19.08;47.00;100081.53;5115370;28;20390;-81
2023/05/13 17:14:48;;;;;;;13.82;7.35;;;;;;;18.90;46.93;100063.47;5115374;28;20098;-83
2023/05/13 17:17:14;;;;;;;11.05;6.05;;;;;;;19.08;47.08;100078.88;5115464;28;20448;-83
2023/05/13 17:19:40;;;;;;;9.52;5.65;;;;;;;19.11;47.09;100076.84;5115216;28;20023;-80
2023/05/13 17:22:06;;;;;;;7.63;5.07;;;;;;;19.14;47.85;100092.47;5097160;28;20114;-81
2023/05/13 17:24:31;;;;;;;6.82;5.00;;;;;;;19.01;47.38;100061.84;5115531;28;20124;-81
2023/05/13 17:26:56;;;;;;;7.72;5.97;;;;;;;18.89;47.53;100056.50;5115159;28;20023;-81
2023/05/13 17:29:24;;;;;;;9.32;5.45;;;;;;;19.10;48.25;100077.81;5115237;28;20023;-81
2023/05/13 17:31:51;;;;;;;6.97;5.50;;;;;;;18.87;48.56;100050.50;5114925;28;20028;-81
2023/05/13 17:34:17;;;;;;;6.03;5.43;;;;;;;18.90;48.21;100068.75;5114921;28;20073;-80
2023/05/13 17:36:42;;;;;;;8.20;4.85;;;;;;;18.79;48.26;100044.94;5115167;28;20023;-81
2023/05/13 17:39:07;;;;;;;14.00;9.85;;;;;;;18.78;48.49;100059.09;5115200;28;20115;-81
2023/05/13 17:41:33;;;;;;;11.80;8.65;;;;;;;18.72;47.99;100078.03;5114930;28;20047;-81
2023/05/13 17:43:58;;;;;;;23.80;19.83;;;;;;;18.78;48.32;100079.38;5114908;28;20039;-81
2023/05/13 17:46:23;;;;;;;24.08;16.83;;;;;;;18.60;48.51;100063.91;5114915;28;20020;-81
2023/05/13 17:48:49;;;;;;;14.00;10.80;;;;;;;18.53;48.25;100057.38;5114712;28;20031;-81
2023/05/13 17:51:14;;;;;;;20.90;18.90;;;;;;;18.41;48.61;100040.69;5114888;28;20051;-81
2023/05/13 17:53:39;;;;;;;24.42;21.88;;;;;;;18.43;48.95;100046.69;5096614;28;20020;-81
2023/05/13 17:56:07;;;;;;;23.38;21.02;;;;;;;18.52;48.82;100050.44;5114632;28;20027;-81
2023/05/13 17:58:32;;;;;;;10.25;8.93;;;;;;;18.50;48.81;100057.63;5114763;28;20027;-81
2023/05/13 18:00:58;;;;;;;11.70;8.82;;;;;;;18.49;48.73;100073.56;5114452;28;20115;-81
2023/05/13 18:03:23;;;;;;;13.93;9.02;;;;;;;18.32;49.32;100053.69;5114423;28;20027;-81
2023/05/13 18:05:49;;;;;;;15.88;10.98;;;;;;;18.36;49.29;100066.53;5114418;28;20036;-81
2023/05/13 18:08:14;;;;;;;24.48;13.20;;;;;;;18.15;49.82;100058.38;5114530;28;20038;-81
2023/05/13 18:10:39;;;;;;;43.38;23.52;;;;;;;18.12;49.64;100063.88;5114537;28;20467;-81
2023/05/13 18:13:05;;;;;;;62.17;32.97;;;;;;;18.17;49.90;100085.47;5114050;28;20063;-81
2023/05/13 18:15:30;;;;;;;57.85;33.22;;;;;;;17.93;50.41;100043.25;5114281;28;20023;-81
2023/05/13 18:17:56;;;;;;;61.60;36.72;;;;;;;17.89;50.52;100054.94;5113949;28;20024;-81
2023/05/13 18:20:21;;;;;;;50.83;31.40;;;;;;;17.94;50.51;100073.91;5114361;28;20074;-81
2023/05/13 18:22:46;;;;;;;34.33;23.10;;;;;;;17.74;51.32;100058.69;5114318;28;20042;-81
2023/05/13 18:25:12;;;;;;;29.15;18.27;;;;;;;17.80;51.45;100089.84;5114040;28;20140;-81
2023/05/13 18:27:37;;;;;;;21.80;15.18;;;;;;;17.66;51.90;100079.41;5114202;28;20110;-81
2023/05/13 18:30:04;;;;;;;21.27;12.98;;;;;;;17.44;52.49;100048.41;5113865;28;20056;-80
2023/05/13 18:32:29;;;;;;;17.58;11.68;;;;;;;17.61;52.59;100086.75;5113813;28;20489;-81
2023/05/13 18:34:55;;;;;;;19.42;13.68;;;;;;;17.43;53.32;100073.06;5113946;28;20027;-81
2023/05/13 18:37:20;;;;;;;20.15;13.70;;;;;;;17.34;53.60;100078.97;5113926;28;20376;-81
2023/05/13 18:39:45;;;;;;;14.10;10.95;;;;;;;17.12;53.57;100051.47;5114091;28;20023;-81
2023/05/13 18:42:11;;;;;;;11.07;8.70;;;;;;;17.12;53.94;100076.94;5111919;28;20036;-81
2023/05/13 18:44:36;;;;;;;12.07;8.65;;;;;;;17.06;54.28;100079.97;5108874;28;20015;-82
2023/05/13 18:47:03;;;;;;;19.60;13.90;;;;;;;16.92;54.29;100079.09;5092489;28;20387;-81
2023/05/13 18:49:29;;;;;;;16.40;11.85;;;;;;;16.86;54.36;100082.16;5092995;28;20032;-82
2023/05/13 18:51:55;;;;;;;22.90;17.92;;;;;;;16.74;54.66;100093.47;5092493;28;20060;-81
2023/05/13 18:54:20;;;;;;;27.08;16.70;;;;;;;16.47;54.62;100069.75;5092674;28;20104;-81
2023/05/13 18:56:46;;;;;;;18.23;13.93;;;;;;;16.60;55.03;100088.22;5092961;28;20479;-81
2023/05/13 18:59:12;;;;;;;17.85;13.43;;;;;;;16.65;55.30;100118.56;5092624;28;20024;-81
2023/05/13 19:01:37;;;;;;;15.48;11.15;;;;;;;16.53;55.81;100105.34;5092600;28;20055;-81
2023/05/13 19:04:03;;;;;;;16.45;10.05;;;;;;;16.31;55.69;100090.09;5092627;28;20027;-81
2023/05/13 19:06:28;;;;;;;11.90;8.95;;;;;;;16.33;55.82;100107.44;5092622;28;20094;-81
2023/05/13 19:08:54;;;;;;;13.10;8.75;;;;;;;16.14;55.98;100088.53;5092458;28;20055;-81
2023/05/13 19:11:21;;;;;;;12.00;10.23;;;;;;;16.27;55.72;100121.00;5092610;28;20055;-81
2023/05/13 19:13:46;;;;;;;16.10;12.82;;;;;;;16.15;55.75;100114.72;5092257;28;20052;-82
2023/05/13 19:16:12;;;;;;;18.23;13.40;;;;;;;16.06;55.85;100107.41;5092147;28;20027;-82
2023/05/13 19:18:38;;;;;;;14.85;11.68;;;;;;;16.10;55.50;100127.28;5092220;28;20106;-81
2023/05/13 19:21:04;;;;;;;13.80;10.90;;;;;;;16.03;55.61;100120.72;5092097;28;20038;-81
2023/05/13 19:23:30;;;;;;;13.25;9.48;;;;;;;16.05;55.35;100123.25;5092387;28;20031;-81
2023/05/13 19:25:56;;;;;;;20.67;13.43;;;;;;;15.99;55.37;100121.00;5092201;28;20035;-82
2023/05/13 19:28:23;;;;;;;52.78;30.27;;;;;;;16.03;55.65;100135.66;5092097;28;20074;-83
2023/05/13 19:30:48;;;;;;;37.40;21.77;;;;;;;15.99;55.60;100134.97;5092247;28;20050;-83
2023/05/13 19:33:14;;;;;;;20.60;12.93;;;;;;;15.94;55.65;100137.06;5095016;28;20471;-80
2023/05/13 19:35:39;;;;;;;16.30;10.20;;;;;;;15.86;55.75;100132.25;5112825;28;20019;-81
2023/05/13 19:38:05;;;;;;;14.90;9.35;;;;;;;15.82;55.85;100128.13;5112525;28;20554;-81
2023/05/13 19:40:30;;;;;;;13.98;9.52;;;;;;;15.85;55.67;100133.22;5112589;28;20107;-80
2023/05/13 19:42:56;;;;;;;15.35;11.07;;;;;;;15.88;56.04;100147.91;5112245;28;20081;-80
2023/05/13 19:45:22;;;;;;;18.02;13.68;;;;;;;15.69;55.82;100120.16;5112320;28;20046;-80
2023/05/13 19:47:48;;;;;;;16.40;12.70;;;;;;;15.73;55.41;100131.31;5112528;28;20412;-80
2023/05/13 19:50:13;;;;;;;18.38;12.50;;;;;;;15.63;55.86;100123.13;5112377;28;20049;-80
2023/05/13 19:52:39;;;;;;;24.90;15.07;;;;;;;15.55;55.83;100112.22;5112399;28;20039;-80
2023/05/13 19:55:06;;;;;;;26.55;18.00;;;;;;;15.62;56.19;100134.53;5112132;28;20102;-81
2023/05/13 19:57:31;;;;;;;31.33;20.02;;;;;;;15.53;56.11;100110.63;5112209;28;20034;-80
2023/05/13 19:59:57;;;;;;;35.17;21.55;;;;;;;15.50;56.05;100116.88;5111998;28;20466;-80
2023/05/13 20:02:22;;;;;;;30.85;18.10;;;;;;;15.50;56.34;100122.13;5111248;28;20054;-80
2023/05/13 20:04:48;;;;;;;30.35;19.15;;;;;;;15.48;56.36;100122.25;5112386;28;20459;-80
2023/05/13 20:07:13;;;;;;;31.75;18.73;;;;;;;15.54;56.22;100134.16;5111864;28;20028;-80
2023/05/13 20:09:38;;;;;;;31.23;19.35;;;;;;;15.25;56.36;100085.16;5112080;28;20050;-81
2023/05/13 20:12:04;;;;;;;29.25;20.15;;;;;;;15.39;56.36;100107.03;5111497;28;20391;-81
2023/05/13 20:14:46;;;;;;;27.92;19.02;;;;;;;15.59;55.98;100144.38;5112097;28;20463;-81
2023/05/13 20:17:16;;;;;;;38.78;21.50;;;;;;;15.36;56.08;100111.63;5112285;28;20395;-81
2023/05/13 20:19:41;;;;;;;38.88;21.92;;;;;;;15.32;56.21;100112.75;5112371;28;20028;-81
2023/05/13 20:22:07;;;;;;;22.92;13.38;;;;;;;15.47;55.79;100138.94;5112103;28;20076;-81
2023/05/13 20:24:32;;;;;;;24.60;13.70;;;;;;;15.16;56.06;100097.88;5112273;28;20418;-81
2023/05/13 20:26:58;;;;;;;21.70;13.60;;;;;;;15.38;56.24;100121.13;5111924;28;20028;-81
2023/05/13 20:29:23;;;;;;;22.80;14.00;;;;;;;15.43;56.39;100137.44;5112156;28;20050;-81
2023/05/13 20:31:48;;;;;;;17.35;13.35;;;;;;;15.33;56.23;100124.91;5112242;28;20023;-81
2023/05/13 20:34:14;;;;;;;17.05;12.30;;;;;;;15.16;56.08;100095.25;5111967;28;20027;-81
2023/05/13 20:36:39;;;;;;;12.23;9.00;;;;;;;15.29;55.89;100128.66;5112197;28;20024;-81
2023/05/13 20:39:06;;;;;;;14.38;9.00;;;;;;;15.08;55.71;100092.22;5111948;28;20110;-81
2023/05/13 20:41:32;;;;;;;14.52;8.43;;;;;;;15.22;55.74;100126.41;5112116;28;20524;-81
2023/05/13 20:43:57;;;;;;;12.63;7.15;;;;;;;15.08;55.48;100102.72;5111794;28;20030;-81
2023/05/13 20:46:23;;;;;;;13.13;9.23;;;;;;;15.16;55.64;100107.53;5112502;28;20148;-81
2023/05/13 20:48:48;;;;;;;14.38;10.00;;;;;;;15.07;55.61;100100.22;5112278;28;20032;-81
2023/05/13 20:51:13;;;;;;;11.98;7.72;;;;;;;15.04;55.71;100093.34;5111780;28;20035;-81
2023/05/13 20:53:39;;;;;;;11.32;7.80;;;;;;;14.90;55.38;100088.91;5112270;28;20097;-81
2023/05/13 20:56:05;;;;;;;13.73;9.20;;;;;;;15.11;55.79;100120.94;5111733;28;20023;-81
2023/05/13 20:58:31;;;;;;;12.93;7.40;;;;;;;15.02;55.93;100118.00;5111722;28;20725;-81
2023/05/13 21:00:56;;;;;;;12.70;8.90;;;;;;;15.02;55.87;100113.59;5111810;28;20102;-81
2023/05/13 21:03:21;;;;;;;10.07;7.25;;;;;;;15.11;55.92;100127.94;5111723;28;20556;-81
2023/05/13 21:05:47;;;;;;;10.57;7.35;;;;;;;14.87;55.98;100096.94;5112035;28;20023;-81
2023/05/13 21:08:13;;;;;;;13.13;7.70;;;;;;;15.01;55.98;100118.94;5111799;28;20020;-81
2023/05/13 21:10:38;;;;;;;7.88;6.03;;;;;;;14.89;55.97;100136.22;5111986;28;20035;-81
2023/05/13 21:13:04;;;;;;;7.65;6.57;;;;;;;14.85;56.16;100109.31;5111763;28;20051;-81
2023/05/13 21:15:29;;;;;;;12.55;7.50;;;;;;;14.96;56.07;100124.44;5115726;28;20466;-81
2023/05/13 21:17:54;;;;;;;8.73;5.88;;;;;;;14.86;56.15;100118.03;5115606;28;20039;-81
2023/05/13 21:20:20;;;;;;;8.15;6.07;;;;;;;14.77;56.34;100118.53;5115297;28;20047;-81
2023/05/13 21:22:45;;;;;;;8.40;6.63;;;;;;;14.64;56.45;100093.00;5115414;28;20040;-81
2023/05/13 21:25:11;;;;;;;6.88;5.32;;;;;;;14.79;56.58;100135.03;5115152;28;20019;-81
2023/05/13 21:27:37;;;;;;;7.35;5.05;;;;;;;14.79;56.41;100124.53;5096908;28;20035;-81
2023/05/13 21:30:03;;;;;;;7.63;4.70;;;;;;;14.75;56.38;100116.03;5114949;28;20099;-81
2023/05/13 21:32:29;;;;;;;9.73;4.63;;;;;;;14.60;56.63;100096.75;5115091;28;20367;-81
2023/05/13 21:34:55;;;;;;;8.50;5.22;;;;;;;14.60;56.78;100112.47;5115303;28;20042;-81
2023/05/13 21:37:20;;;;;;;6.43;5.47;;;;;;;14.56;56.95;100115.34;5115012;28;20027;-81
2023/05/13 21:39:45;;;;;;;6.65;5.25;;;;;;;14.60;57.27;100119.50;5115430;28;20030;-81
2023/05/13 21:42:11;;;;;;;7.88;6.10;;;;;;;14.54;57.29;100107.59;5114761;28;20023;-81
2023/05/13 21:44:36;;;;;;;9.73;7.30;;;;;;;14.58;56.94;100108.22;5115486;28;20050;-81
2023/05/13 21:47:01;;;;;;;13.48;7.40;;;;;;;14.62;57.15;100121.09;5114464;28;20038;-80
2023/05/13 21:49:27;;;;;;;9.60;5.65;;;;;;;14.65;57.22;100122.69;5114916;28;20035;-81
2023/05/13 21:51:52;;;;;;;7.65;5.53;;;;;;;14.70;57.41;100123.28;5114783;28;20035;-81
2023/05/13 21:54:18;;;;;;;6.15;5.00;;;;;;;14.40;57.08;100089.94;5114624;28;20446;-81
2023/05/13 21:56:43;;;;;;;5.75;5.15;;;;;;;14.35;57.16;100084.13;5114718;28;20027;-81
2023/05/13 21:59:09;;;;;;;5.57;4.65;;;;;;;14.38;57.26;100088.34;5114657;28;20024;-81
2023/05/13 22:01:34;;;;;;;7.13;5.07;;;;;;;14.41;57.22;100098.66;5114803;28;20122;-81
2023/05/13 22:03:59;;;;;;;5.88;4.97;;;;;;;14.59;57.24;100126.50;5114661;28;20486;-81
2023/05/13 22:06:25;;;;;;;5.63;4.75;;;;;;;14.33;57.40;100096.47;5114444;28;20609;-81
2023/05/13 22:08:50;;;;;;;10.05;5.32;;;;;;;14.48;57.42;100124.47;5114495;28;20574;-81
2023/05/13 22:11:15;;;;;;;6.05;5.20;;;;;;;14.21;57.34;100090.13;5114313;28;20475;-81
2023/05/13 22:13:41;;;;;;;7.35;5.18;;;;;;;14.21;57.63;100090.13;5114207;28;20494;-81
2023/05/13 22:16:06;;;;;;;5.05;4.07;;;;;;;14.30;57.55;100114.13;5114316;28;20463;-81
2023/05/13 22:18:32;;;;;;;8.20;4.88;;;;;;;14.20;57.59;100092.84;5114551;28;20028;-81
2023/05/13 22:20:59;;;;;;;7.88;4.97;;;;;;;14.11;58.04;100096.78;5114496;28;20024;-81
2023/05/13 22:23:25;;;;;;;6.70;4.75;;;;;;;14.06;58.21;100096.19;5114146;28;20031;-81
2023/05/13 22:25:50;;;;;;;9.02;5.72;;;;;;;14.00;58.43;100099.16;5113228;28;20119;-81
2023/05/13 22:28:15;;;;;;;7.50;5.65;;;;;;;13.90;58.39;100075.19;5113759;28;20475;-81
2023/05/13 22:30:41;;;;;;;10.45;6.25;;;;;;;14.13;58.68;100115.03;5114314;28;20410;-81
2023/05/13 22:33:06;;;;;;;9.75;5.78;;;;;;;14.05;58.67;100110.22;5113944;28;20422;-81
2023/05/13 22:35:35;;;;;;;9.20;6.93;;;;;;;14.09;58.59;100111.75;5114337;28;20515;-81
2023/05/13 22:38:01;;;;;;;11.25;7.65;;;;;;;14.10;58.80;100107.34;5077851;28;20410;-81
2023/05/13 22:40:27;;;;;;;9.77;6.97;;;;;;;14.01;58.57;100103.44;5113577;28;20027;-80
2023/05/13 22:42:52;;;;;;;8.48;6.00;;;;;;;13.92;58.53;100085.63;5113912;28;20046;-81
2023/05/13 22:45:17;;;;;;;6.97;5.38;;;;;;;13.97;58.84;100101.91;5113688;28;20025;-81
2023/05/13 22:47:42;;;;;;;5.63;5.00;;;;;;;13.89;58.92;100093.63;5113735;28;20383;-81
2023/05/13 22:50:08;;;;;;;8.23;5.45;;;;;;;13.71;59.14;100074.50;5113418;28;20435;-81
2023/05/13 22:52:34;;;;;;;8.95;5.22;;;;;;;13.89;58.97;100101.47;5113656;28;20608;-81
2023/05/13 22:55:00;;;;;;;8.07;5.60;;;;;;;13.66;59.16;100068.69;5113516;28;20139;-81
2023/05/13 22:57:25;;;;;;;8.95;5.45;;;;;;;13.80;59.42;100100.19;5113509;28;20028;-81
2023/05/13 22:59:51;;;;;;;7.10;4.68;;;;;;;13.76;59.29;100088.19;5113626;28;20053;-81
2023/05/13 23:02:16;;;;;;;7.30;5.18;;;;;;;13.53;59.36;100059.78;5113424;28;20031;-81
2023/05/13 23:04:41;;;;;;;6.35;5.20;;;;;;;13.52;59.85;100074.59;5113475;28;20038;-81
2023/05/13 23:07:07;;;;;;;6.38;5.38;;;;;;;13.66;59.41;100087.84;5113103;28;20024;-80
2023/05/13 23:09:32;;;;;;;7.70;5.00;;;;;;;13.58;59.63;100078.69;5113198;28;20026;-81
2023/05/13 23:11:58;;;;;;;10.10;5.60;;;;;;;13.57;59.72;100063.91;5113237;28;20037;-81
2023/05/13 23:14:24;;;;;;;7.85;5.22;;;;;;;13.43;60.01;100065.47;5113228;28;20070;-81
2023/05/13 23:16:50;;;;;;;6.47;5.00;;;;;;;13.42;59.78;100068.16;5113284;28;20035;-81
2023/05/13 23:19:15;;;;;;;6.40;4.75;;;;;;;13.51;60.06;100093.84;5112996;28;20027;-81
2023/05/13 23:21:40;;;;;;;7.25;4.75;;;;;;;13.32;60.11;100062.56;5113269;28;20024;-81
2023/05/13 23:24:06;;;;;;;6.75;5.18;;;;;;;13.52;60.06;100098.16;5112895;28;20019;-81
2023/05/13 23:26:31;;;;;;;7.25;5.50;;;;;;;13.33;60.31;100068.66;5113559;28;20031;-81
2023/05/13 23:28:56;;;;;;;7.70;5.15;;;;;;;13.39;60.25;100068.31;5113138;28;20404;-80
2023/05/13 23:31:22;;;;;;;6.60;5.25;;;;;;;13.46;60.26;100094.09;5112600;28;20027;-81
2023/05/13 23:33:47;;;;;;;6.65;5.22;;;;;;;13.29;60.12;100065.34;5113233;28;20027;-81
2023/05/13 23:36:14;;;;;;;8.27;5.25;;;;;;;13.51;60.12;100100.88;5112615;28;20028;-81
2023/05/13 23:38:40;;;;;;;6.95;5.45;;;;;;;13.39;60.23;100071.78;5112842;28;20024;-81
2023/05/13 23:41:05;;;;;;;5.05;4.47;;;;;;;13.44;60.35;100093.34;5112750;28;20040;-81
2023/05/13 23:43:30;;;;;;;7.95;5.00;;;;;;;13.30;60.48;100060.94;5112616;28;20023;-81
2023/05/13 23:45:56;;;;;;;8.80;5.85;;;;;;;13.35;60.30;100080.72;5113023;28;20051;-80
2023/05/13 23:48:21;;;;;;;5.25;4.38;;;;;;;13.37;60.42;100080.66;5112348;28;20016;-81
2023/05/13 23:50:47;;;;;;;8.15;5.07;;;;;;;13.28;60.61;100068.88;5112672;28;20391;-81
2023/05/13 23:53:12;;;;;;;5.80;5.07;;;;;;;13.36;60.61;100082.44;5112318;28;20374;-81
2023/05/13 23:55:37;;;;;;;6.97;4.47;;;;;;;13.41;60.69;100085.66;5112555;28;20028;-81
2023/05/13 23:58:03;;;;;;;7.05;4.93;;;;;;;13.11;60.57;100047.94;5112456;28;20073;-81
